METAR Formatted Surface Weather Observation
Issued by NWS

Home | Current Version | Previous Version | Text Only | Print | Product List | Glossary On
Versions: 1 2 3 4 5 6 7 8 9 10
132
SAUS41 KGYX 271303 COR
MTRNKT
METAR KNKT 271254Z 22008KT 10SM FEW036 FEW060 23/19 A2995 RMK AO2
SLP138 T02330189



USA.gov is the U.S. government's official web portal to all federal, state and local government web resources and services.